sensor_id;sensor_type;location;lat;lon;timestamp;P1;durP1;ratioP1;P2;durP2;ratioP2
29202;SDS011;16245;51.170;4.884;2023-02-03T00:00:45;16.90;;;5.43;;
29202;SDS011;16245;51.170;4.884;2023-02-03T00:03:11;10.57;;;3.72;;
29202;SDS011;16245;51.170;4.884;2023-02-03T00:05:37;12.63;;;4.28;;
29202;SDS011;16245;51.170;4.884;2023-02-03T00:08:04;11.15;;;4.28;;
29202;SDS011;16245;51.170;4.884;2023-02-03T00:10:33;14.80;;;4.18;;
29202;SDS011;16245;51.170;4.884;2023-02-03T00:12:59;9.95;;;3.63;;
29202;SDS011;16245;51.170;4.884;2023-02-03T00:15:25;14.30;;;4.25;;
29202;SDS011;16245;51.170;4.884;2023-02-03T00:17:51;13.20;;;3.78;;
29202;SDS011;16245;51.170;4.884;2023-02-03T00:20:18;9.10;;;3.50;;
29202;SDS011;16245;51.170;4.884;2023-02-03T00:22:43;8.55;;;3.63;;
29202;SDS011;16245;51.170;4.884;2023-02-03T00:25:09;11.73;;;3.20;;
29202;SDS011;16245;51.170;4.884;2023-02-03T00:27:35;9.63;;;3.50;;
29202;SDS011;16245;51.170;4.884;2023-02-03T00:30:00;10.00;;;3.83;;
29202;SDS011;16245;51.170;4.884;2023-02-03T00:32:26;7.03;;;3.35;;
29202;SDS011;16245;51.170;4.884;2023-02-03T00:34:52;11.20;;;4.10;;
29202;SDS011;16245;51.170;4.884;2023-02-03T00:37:17;10.43;;;3.55;;
29202;SDS011;16245;51.170;4.884;2023-02-03T00:39:43;12.95;;;4.85;;
29202;SDS011;16245;51.170;4.884;2023-02-03T00:42:09;14.30;;;4.20;;
29202;SDS011;16245;51.170;4.884;2023-02-03T00:44:34;10.10;;;4.10;;
29202;SDS011;16245;51.170;4.884;2023-02-03T00:47:00;12.70;;;4.10;;
29202;SDS011;16245;51.170;4.884;2023-02-03T00:49:25;7.00;;;3.47;;
29202;SDS011;16245;51.170;4.884;2023-02-03T00:51:51;10.85;;;3.58;;
29202;SDS011;16245;51.170;4.884;2023-02-03T00:54:17;10.18;;;3.40;;
29202;SDS011;16245;51.170;4.884;2023-02-03T00:56:43;7.45;;;3.22;;
29202;SDS011;16245;51.170;4.884;2023-02-03T00:59:09;11.88;;;3.70;;
29202;SDS011;16245;51.170;4.884;2023-02-03T01:01:34;8.80;;;3.33;;
29202;SDS011;16245;51.170;4.884;2023-02-03T01:04:00;9.65;;;4.38;;
29202;SDS011;16245;51.170;4.884;2023-02-03T01:06:26;11.07;;;3.67;;
29202;SDS011;16245;51.170;4.884;2023-02-03T01:08:52;12.13;;;4.07;;
29202;SDS011;16245;51.170;4.884;2023-02-03T01:11:19;11.13;;;3.63;;
29202;SDS011;16245;51.170;4.884;2023-02-03T01:13:52;9.98;;;4.00;;
29202;SDS011;16245;51.170;4.884;2023-02-03T01:16:19;10.00;;;3.90;;
29202;SDS011;16245;51.170;4.884;2023-02-03T01:18:46;7.88;;;3.72;;
29202;SDS011;16245;51.170;4.884;2023-02-03T01:21:16;14.05;;;4.30;;
29202;SDS011;16245;51.170;4.884;2023-02-03T01:23:46;14.57;;;4.30;;
29202;SDS011;16245;51.170;4.884;2023-02-03T01:26:16;15.50;;;4.00;;
29202;SDS011;16245;51.170;4.884;2023-02-03T01:28:43;11.50;;;4.15;;
29202;SDS011;16245;51.170;4.884;2023-02-03T01:31:13;13.13;;;3.97;;
29202;SDS011;16245;51.170;4.884;2023-02-03T01:33:43;9.82;;;4.05;;
29202;SDS011;16245;51.170;4.884;2023-02-03T01:36:12;11.75;;;4.28;;
29202;SDS011;16245;51.170;4.884;2023-02-03T01:38:39;8.77;;;4.40;;
29202;SDS011;16245;51.170;4.884;2023-02-03T01:41:06;14.82;;;4.38;;
29202;SDS011;16245;51.170;4.884;2023-02-03T01:43:34;8.35;;;3.65;;
29202;SDS011;16245;51.170;4.884;2023-02-03T01:46:03;8.82;;;4.22;;
29202;SDS011;16245;51.170;4.884;2023-02-03T01:48:49;13.60;;;4.07;;
29202;SDS011;16245;51.170;4.884;2023-02-03T01:51:17;14.77;;;4.28;;
29202;SDS011;16245;51.170;4.884;2023-02-03T01:53:44;10.43;;;3.38;;
29202;SDS011;16245;51.170;4.884;2023-02-03T01:56:10;7.97;;;3.30;;
29202;SDS011;16245;51.170;4.884;2023-02-03T01:58:39;8.63;;;3.40;;
29202;SDS011;16245;51.170;4.884;2023-02-03T02:01:06;13.32;;;3.75;;
29202;SDS011;16245;51.170;4.884;2023-02-03T02:06:09;8.25;;;3.17;;
29202;SDS011;16245;51.170;4.884;2023-02-03T02:08:36;9.05;;;3.08;;
29202;SDS011;16245;51.170;4.884;2023-02-03T02:11:04;12.25;;;3.67;;
29202;SDS011;16245;51.170;4.884;2023-02-03T02:13:32;14.80;;;3.45;;
29202;SDS011;16245;51.170;4.884;2023-02-03T02:16:21;10.82;;;3.55;;
29202;SDS011;16245;51.170;4.884;2023-02-03T02:33:07;10.70;;;2.70;;
29202;SDS011;16245;51.170;4.884;2023-02-03T02:35:50;9.95;;;2.85;;
29202;SDS011;16245;51.170;4.884;2023-02-03T02:41:11;9.77;;;2.88;;
29202;SDS011;16245;51.170;4.884;2023-02-03T02:47:20;10.40;;;2.83;;
29202;SDS011;16245;51.170;4.884;2023-02-03T02:49:55;7.85;;;2.40;;
29202;SDS011;16245;51.170;4.884;2023-02-03T02:52:30;8.85;;;2.70;;
29202;SDS011;16245;51.170;4.884;2023-02-03T02:55:00;10.80;;;2.50;;
29202;SDS011;16245;51.170;4.884;2023-02-03T02:57:31;12.00;;;2.70;;
29202;SDS011;16245;51.170;4.884;2023-02-03T03:00:00;13.65;;;2.80;;
29202;SDS011;16245;51.170;4.884;2023-02-03T03:02:32;7.43;;;2.55;;
29202;SDS011;16245;51.170;4.884;2023-02-03T03:04:59;9.02;;;2.67;;
29202;SDS011;16245;51.170;4.884;2023-02-03T03:07:28;9.90;;;2.50;;
29202;SDS011;16245;51.170;4.884;2023-02-03T03:10:02;9.85;;;2.25;;
29202;SDS011;16245;51.170;4.884;2023-02-03T03:12:34;13.35;;;3.13;;
29202;SDS011;16245;51.170;4.884;2023-02-03T03:15:07;10.38;;;2.92;;
29202;SDS011;16245;51.170;4.884;2023-02-03T03:17:42;3.85;;;1.90;;
29202;SDS011;16245;51.170;4.884;2023-02-03T03:20:12;6.60;;;2.90;;
29202;SDS011;16245;51.170;4.884;2023-02-03T03:22:47;7.00;;;2.67;;
29202;SDS011;16245;51.170;4.884;2023-02-03T03:25:20;8.18;;;2.45;;
29202;SDS011;16245;51.170;4.884;2023-02-03T03:28:00;12.95;;;3.28;;
29202;SDS011;16245;51.170;4.884;2023-02-03T03:30:32;8.18;;;2.83;;
29202;SDS011;16245;51.170;4.884;2023-02-03T03:33:02;5.63;;;3.08;;
29202;SDS011;16245;51.170;4.884;2023-02-03T03:35:53;8.18;;;2.20;;
29202;SDS011;16245;51.170;4.884;2023-02-03T03:38:29;10.15;;;2.40;;
29202;SDS011;16245;51.170;4.884;2023-02-03T03:41:02;12.10;;;2.58;;
29202;SDS011;16245;51.170;4.884;2023-02-03T03:43:37;5.85;;;2.25;;
29202;SDS011;16245;51.170;4.884;2023-02-03T03:46:12;8.63;;;2.25;;
29202;SDS011;16245;51.170;4.884;2023-02-03T03:48:42;6.93;;;1.73;;
29202;SDS011;16245;51.170;4.884;2023-02-03T03:51:31;5.90;;;2.50;;
29202;SDS011;16245;51.170;4.884;2023-02-03T03:54:06;7.78;;;2.22;;
29202;SDS011;16245;51.170;4.884;2023-02-03T03:56:42;9.60;;;2.33;;
29202;SDS011;16245;51.170;4.884;2023-02-03T03:59:13;8.35;;;2.08;;
29202;SDS011;16245;51.170;4.884;2023-02-03T04:01:42;6.97;;;1.95;;
29202;SDS011;16245;51.170;4.884;2023-02-03T04:04:09;11.02;;;1.95;;
29202;SDS011;16245;51.170;4.884;2023-02-03T04:06:37;6.40;;;2.30;;
29202;SDS011;16245;51.170;4.884;2023-02-03T04:09:03;9.75;;;2.65;;
29202;SDS011;16245;51.170;4.884;2023-02-03T04:11:29;5.35;;;2.10;;
29202;SDS011;16245;51.170;4.884;2023-02-03T04:14:14;8.90;;;1.95;;
29202;SDS011;16245;51.170;4.884;2023-02-03T04:16:39;10.07;;;2.42;;
29202;SDS011;16245;51.170;4.884;2023-02-03T04:19:05;5.50;;;1.98;;
29202;SDS011;16245;51.170;4.884;2023-02-03T04:21:31;8.93;;;2.22;;
29202;SDS011;16245;51.170;4.884;2023-02-03T04:23:56;7.35;;;2.38;;
29202;SDS011;16245;51.170;4.884;2023-02-03T04:26:22;5.90;;;1.77;;
29202;SDS011;16245;51.170;4.884;2023-02-03T04:28:48;5.63;;;2.20;;
29202;SDS011;16245;51.170;4.884;2023-02-03T04:31:14;9.07;;;2.20;;
29202;SDS011;16245;51.170;4.884;2023-02-03T04:33:40;8.88;;;2.45;;
29202;SDS011;16245;51.170;4.884;2023-02-03T04:36:05;11.38;;;2.60;;
29202;SDS011;16245;51.170;4.884;2023-02-03T04:38:31;6.00;;;1.92;;
29202;SDS011;16245;51.170;4.884;2023-02-03T04:40:57;5.80;;;2.20;;
29202;SDS011;16245;51.170;4.884;2023-02-03T04:43:23;6.15;;;1.70;;
29202;SDS011;16245;51.170;4.884;2023-02-03T04:45:49;7.30;;;2.00;;
29202;SDS011;16245;51.170;4.884;2023-02-03T04:48:14;11.43;;;2.65;;
29202;SDS011;16245;51.170;4.884;2023-02-03T04:50:40;5.38;;;1.70;;
29202;SDS011;16245;51.170;4.884;2023-02-03T04:53:06;7.93;;;2.38;;
29202;SDS011;16245;51.170;4.884;2023-02-03T04:55:31;7.93;;;1.85;;
29202;SDS011;16245;51.170;4.884;2023-02-03T04:57:58;7.05;;;1.88;;
29202;SDS011;16245;51.170;4.884;2023-02-03T05:00:24;9.10;;;3.20;;
29202;SDS011;16245;51.170;4.884;2023-02-03T05:02:51;9.80;;;2.03;;
29202;SDS011;16245;51.170;4.884;2023-02-03T05:05:17;7.65;;;1.95;;
29202;SDS011;16245;51.170;4.884;2023-02-03T05:07:42;2.90;;;1.30;;
29202;SDS011;16245;51.170;4.884;2023-02-03T05:10:08;9.02;;;2.28;;
29202;SDS011;16245;51.170;4.884;2023-02-03T05:12:34;8.32;;;1.75;;
29202;SDS011;16245;51.170;4.884;2023-02-03T05:15:00;6.38;;;2.20;;
29202;SDS011;16245;51.170;4.884;2023-02-03T05:17:26;9.85;;;2.00;;
29202;SDS011;16245;51.170;4.884;2023-02-03T05:19:52;5.00;;;1.83;;
29202;SDS011;16245;51.170;4.884;2023-02-03T05:22:17;5.88;;;2.47;;
29202;SDS011;16245;51.170;4.884;2023-02-03T05:24:43;6.13;;;1.67;;
29202;SDS011;16245;51.170;4.884;2023-02-03T05:27:09;7.38;;;1.80;;
29202;SDS011;16245;51.170;4.884;2023-02-03T05:29:34;10.25;;;2.03;;
29202;SDS011;16245;51.170;4.884;2023-02-03T05:32:00;7.40;;;1.90;;
29202;SDS011;16245;51.170;4.884;2023-02-03T05:34:26;7.60;;;2.00;;
29202;SDS011;16245;51.170;4.884;2023-02-03T05:36:51;8.55;;;1.95;;
29202;SDS011;16245;51.170;4.884;2023-02-03T05:39:17;10.23;;;2.10;;
29202;SDS011;16245;51.170;4.884;2023-02-03T05:41:43;6.30;;;1.70;;
29202;SDS011;16245;51.170;4.884;2023-02-03T05:44:21;5.95;;;1.73;;
29202;SDS011;16245;51.170;4.884;2023-02-03T05:46:48;8.02;;;1.77;;
29202;SDS011;16245;51.170;4.884;2023-02-03T05:49:14;6.45;;;1.33;;
29202;SDS011;16245;51.170;4.884;2023-02-03T05:51:40;6.57;;;1.90;;
29202;SDS011;16245;51.170;4.884;2023-02-03T05:54:06;6.18;;;1.40;;
29202;SDS011;16245;51.170;4.884;2023-02-03T05:56:32;5.18;;;1.58;;
29202;SDS011;16245;51.170;4.884;2023-02-03T05:58:58;11.18;;;1.98;;
29202;SDS011;16245;51.170;4.884;2023-02-03T06:01:24;6.78;;;2.25;;
29202;SDS011;16245;51.170;4.884;2023-02-03T06:03:50;4.63;;;1.67;;
29202;SDS011;16245;51.170;4.884;2023-02-03T06:06:15;8.00;;;1.80;;
29202;SDS011;16245;51.170;4.884;2023-02-03T06:08:41;6.90;;;2.40;;
29202;SDS011;16245;51.170;4.884;2023-02-03T06:11:08;7.63;;;1.70;;
29202;SDS011;16245;51.170;4.884;2023-02-03T06:13:34;5.50;;;1.83;;
29202;SDS011;16245;51.170;4.884;2023-02-03T06:16:00;5.70;;;1.70;;
29202;SDS011;16245;51.170;4.884;2023-02-03T06:18:26;7.35;;;1.98;;
29202;SDS011;16245;51.170;4.884;2023-02-03T06:20:52;6.55;;;1.80;;
29202;SDS011;16245;51.170;4.884;2023-02-03T06:23:17;8.07;;;1.75;;
29202;SDS011;16245;51.170;4.884;2023-02-03T06:25:43;5.88;;;1.48;;
29202;SDS011;16245;51.170;4.884;2023-02-03T06:28:11;7.13;;;1.40;;
29202;SDS011;16245;51.170;4.884;2023-02-03T06:30:37;7.30;;;2.15;;
29202;SDS011;16245;51.170;4.884;2023-02-03T06:33:03;4.93;;;1.75;;
29202;SDS011;16245;51.170;4.884;2023-02-03T06:35:28;4.00;;;1.83;;
29202;SDS011;16245;51.170;4.884;2023-02-03T06:37:54;7.28;;;1.80;;
29202;SDS011;16245;51.170;4.884;2023-02-03T06:40:20;5.53;;;1.75;;
29202;SDS011;16245;51.170;4.884;2023-02-03T06:42:46;6.82;;;1.67;;
29202;SDS011;16245;51.170;4.884;2023-02-03T06:45:12;4.95;;;1.30;;
29202;SDS011;16245;51.170;4.884;2023-02-03T06:47:39;7.88;;;1.60;;
29202;SDS011;16245;51.170;4.884;2023-02-03T06:50:09;8.55;;;1.83;;
29202;SDS011;16245;51.170;4.884;2023-02-03T06:52:37;5.47;;;1.40;;
29202;SDS011;16245;51.170;4.884;2023-02-03T06:55:03;7.43;;;1.40;;
29202;SDS011;16245;51.170;4.884;2023-02-03T06:57:30;4.38;;;1.48;;
29202;SDS011;16245;51.170;4.884;2023-02-03T06:59:56;3.35;;;1.20;;
29202;SDS011;16245;51.170;4.884;2023-02-03T07:02:21;4.22;;;1.80;;
29202;SDS011;16245;51.170;4.884;2023-02-03T07:04:47;4.28;;;1.65;;
29202;SDS011;16245;51.170;4.884;2023-02-03T07:07:13;6.25;;;2.10;;
29202;SDS011;16245;51.170;4.884;2023-02-03T07:09:39;9.30;;;1.80;;
29202;SDS011;16245;51.170;4.884;2023-02-03T07:12:05;5.40;;;1.67;;
29202;SDS011;16245;51.170;4.884;2023-02-03T07:14:31;3.72;;;1.70;;
29202;SDS011;16245;51.170;4.884;2023-02-03T07:17:00;4.65;;;1.83;;
29202;SDS011;16245;51.170;4.884;2023-02-03T07:19:27;4.03;;;1.15;;
29202;SDS011;16245;51.170;4.884;2023-02-03T07:21:53;7.10;;;1.73;;
29202;SDS011;16245;51.170;4.884;2023-02-03T07:24:19;6.93;;;1.58;;
29202;SDS011;16245;51.170;4.884;2023-02-03T07:26:44;4.97;;;1.30;;
29202;SDS011;16245;51.170;4.884;2023-02-03T07:29:10;5.63;;;1.70;;
29202;SDS011;16245;51.170;4.884;2023-02-03T07:31:36;6.25;;;1.77;;
29202;SDS011;16245;51.170;4.884;2023-02-03T07:34:02;7.35;;;1.58;;
29202;SDS011;16245;51.170;4.884;2023-02-03T07:36:28;4.40;;;1.73;;
29202;SDS011;16245;51.170;4.884;2023-02-03T07:38:54;8.85;;;1.42;;
29202;SDS011;16245;51.170;4.884;2023-02-03T07:41:19;4.80;;;1.67;;
29202;SDS011;16245;51.170;4.884;2023-02-03T07:43:45;5.05;;;1.75;;
29202;SDS011;16245;51.170;4.884;2023-02-03T07:46:11;7.88;;;1.30;;
29202;SDS011;16245;51.170;4.884;2023-02-03T07:48:37;6.15;;;1.67;;
29202;SDS011;16245;51.170;4.884;2023-02-03T07:51:03;5.35;;;1.20;;
29202;SDS011;16245;51.170;4.884;2023-02-03T07:53:29;4.65;;;1.23;;
29202;SDS011;16245;51.170;4.884;2023-02-03T07:55:58;8.35;;;1.95;;
29202;SDS011;16245;51.170;4.884;2023-02-03T07:58:27;5.50;;;1.25;;
29202;SDS011;16245;51.170;4.884;2023-02-03T08:00:55;5.70;;;1.27;;
29202;SDS011;16245;51.170;4.884;2023-02-03T08:03:21;6.85;;;1.48;;
29202;SDS011;16245;51.170;4.884;2023-02-03T08:05:47;5.28;;;1.63;;
29202;SDS011;16245;51.170;4.884;2023-02-03T08:08:13;7.18;;;1.83;;
29202;SDS011;16245;51.170;4.884;2023-02-03T08:10:38;4.00;;;1.23;;
29202;SDS011;16245;51.170;4.884;2023-02-03T08:13:04;7.82;;;1.85;;
29202;SDS011;16245;51.170;4.884;2023-02-03T08:15:30;5.63;;;2.17;;
29202;SDS011;16245;51.170;4.884;2023-02-03T08:17:55;5.22;;;1.70;;
29202;SDS011;16245;51.170;4.884;2023-02-03T08:20:21;5.38;;;1.70;;
29202;SDS011;16245;51.170;4.884;2023-02-03T08:22:47;5.65;;;1.98;;
29202;SDS011;16245;51.170;4.884;2023-02-03T08:25:12;4.18;;;1.48;;
29202;SDS011;16245;51.170;4.884;2023-02-03T08:27:38;8.93;;;1.98;;
29202;SDS011;16245;51.170;4.884;2023-02-03T08:30:05;6.57;;;1.80;;
29202;SDS011;16245;51.170;4.884;2023-02-03T08:32:32;5.32;;;1.88;;
29202;SDS011;16245;51.170;4.884;2023-02-03T08:34:58;4.28;;;1.77;;
29202;SDS011;16245;51.170;4.884;2023-02-03T08:37:24;6.53;;;1.80;;
29202;SDS011;16245;51.170;4.884;2023-02-03T08:39:50;3.85;;;1.63;;
29202;SDS011;16245;51.170;4.884;2023-02-03T08:42:16;9.80;;;1.70;;
29202;SDS011;16245;51.170;4.884;2023-02-03T08:44:42;8.13;;;1.70;;
29202;SDS011;16245;51.170;4.884;2023-02-03T08:47:09;4.22;;;1.60;;
29202;SDS011;16245;51.170;4.884;2023-02-03T08:49:35;5.95;;;1.95;;
29202;SDS011;16245;51.170;4.884;2023-02-03T08:52:04;5.07;;;1.67;;
29202;SDS011;16245;51.170;4.884;2023-02-03T08:54:31;5.63;;;1.80;;
29202;SDS011;16245;51.170;4.884;2023-02-03T08:56:57;8.23;;;2.10;;
29202;SDS011;16245;51.170;4.884;2023-02-03T08:59:23;4.95;;;2.42;;
29202;SDS011;16245;51.170;4.884;2023-02-03T09:01:49;7.95;;;2.60;;
29202;SDS011;16245;51.170;4.884;2023-02-03T09:04:16;7.80;;;2.90;;
29202;SDS011;16245;51.170;4.884;2023-02-03T09:06:44;5.43;;;2.00;;
29202;SDS011;16245;51.170;4.884;2023-02-03T09:09:12;5.82;;;2.20;;
29202;SDS011;16245;51.170;4.884;2023-02-03T09:11:39;10.32;;;2.22;;
29202;SDS011;16245;51.170;4.884;2023-02-03T09:14:06;6.32;;;2.05;;
29202;SDS011;16245;51.170;4.884;2023-02-03T09:16:32;6.10;;;2.15;;
29202;SDS011;16245;51.170;4.884;2023-02-03T09:18:58;3.42;;;1.95;;
29202;SDS011;16245;51.170;4.884;2023-02-03T09:21:24;5.80;;;2.42;;
29202;SDS011;16245;51.170;4.884;2023-02-03T09:23:49;6.75;;;2.65;;
29202;SDS011;16245;51.170;4.884;2023-02-03T09:26:15;7.32;;;2.05;;
29202;SDS011;16245;51.170;4.884;2023-02-03T09:28:41;11.75;;;2.78;;
29202;SDS011;16245;51.170;4.884;2023-02-03T09:31:11;9.68;;;3.20;;
29202;SDS011;16245;51.170;4.884;2023-02-03T09:33:39;12.25;;;3.08;;
29202;SDS011;16245;51.170;4.884;2023-02-03T09:36:05;6.28;;;2.58;;
29202;SDS011;16245;51.170;4.884;2023-02-03T09:38:32;7.55;;;3.03;;
29202;SDS011;16245;51.170;4.884;2023-02-03T09:41:01;7.97;;;3.05;;
29202;SDS011;16245;51.170;4.884;2023-02-03T09:48:55;9.52;;;2.63;;
29202;SDS011;16245;51.170;4.884;2023-02-03T09:52:01;6.75;;;2.60;;
29202;SDS011;16245;51.170;4.884;2023-02-03T09:54:26;6.70;;;2.95;;
29202;SDS011;16245;51.170;4.884;2023-02-03T09:57:12;9.55;;;2.60;;
29202;SDS011;16245;51.170;4.884;2023-02-03T10:00:03;8.05;;;3.75;;
29202;SDS011;16245;51.170;4.884;2023-02-03T10:05:27;7.45;;;3.15;;
29202;SDS011;16245;51.170;4.884;2023-02-03T10:08:25;10.25;;;3.10;;
29202;SDS011;16245;51.170;4.884;2023-02-03T10:18:56;12.48;;;2.50;;
29202;SDS011;16245;51.170;4.884;2023-02-03T10:21:40;7.43;;;2.30;;
29202;SDS011;16245;51.170;4.884;2023-02-03T10:24:11;8.35;;;2.78;;
29202;SDS011;16245;51.170;4.884;2023-02-03T10:26:57;6.68;;;2.78;;
29202;SDS011;16245;51.170;4.884;2023-02-03T10:29:29;6.35;;;2.38;;
29202;SDS011;16245;51.170;4.884;2023-02-03T10:32:12;9.80;;;2.47;;
29202;SDS011;16245;51.170;4.884;2023-02-03T10:34:38;5.05;;;2.50;;
29202;SDS011;16245;51.170;4.884;2023-02-03T10:39:53;9.43;;;2.50;;
29202;SDS011;16245;51.170;4.884;2023-02-03T10:42:21;12.00;;;2.90;;
29202;SDS011;16245;51.170;4.884;2023-02-03T10:47:31;5.22;;;2.63;;
29202;SDS011;16245;51.170;4.884;2023-02-03T10:50:04;5.00;;;2.38;;
29202;SDS011;16245;51.170;4.884;2023-02-03T10:52:35;6.05;;;2.47;;
29202;SDS011;16245;51.170;4.884;2023-02-03T10:55:07;7.63;;;2.45;;
29202;SDS011;16245;51.170;4.884;2023-02-03T10:57:49;14.57;;;3.55;;
29202;SDS011;16245;51.170;4.884;2023-02-03T11:03:05;8.18;;;2.25;;
29202;SDS011;16245;51.170;4.884;2023-02-03T11:05:34;4.93;;;2.00;;
29202;SDS011;16245;51.170;4.884;2023-02-03T11:08:00;9.18;;;2.05;;
29202;SDS011;16245;51.170;4.884;2023-02-03T11:10:36;10.68;;;2.50;;
29202;SDS011;16245;51.170;4.884;2023-02-03T11:13:20;13.95;;;2.67;;
29202;SDS011;16245;51.170;4.884;2023-02-03T11:16:01;6.35;;;2.17;;
29202;SDS011;16245;51.170;4.884;2023-02-03T11:18:39;7.85;;;2.13;;
29202;SDS011;16245;51.170;4.884;2023-02-03T11:23:33;10.93;;;2.35;;
29202;SDS011;16245;51.170;4.884;2023-02-03T11:26:02;6.88;;;2.40;;
29202;SDS011;16245;51.170;4.884;2023-02-03T11:28:34;8.25;;;2.38;;
29202;SDS011;16245;51.170;4.884;2023-02-03T11:31:00;6.05;;;2.58;;
29202;SDS011;16245;51.170;4.884;2023-02-03T11:33:26;7.13;;;2.40;;
29202;SDS011;16245;51.170;4.884;2023-02-03T11:35:56;7.20;;;2.00;;
29202;SDS011;16245;51.170;4.884;2023-02-03T11:38:31;6.03;;;2.05;;
29202;SDS011;16245;51.170;4.884;2023-02-03T11:41:00;5.72;;;1.98;;
29202;SDS011;16245;51.170;4.884;2023-02-03T11:43:27;15.60;;;2.45;;
29202;SDS011;16245;51.170;4.884;2023-02-03T11:45:53;10.70;;;2.28;;
29202;SDS011;16245;51.170;4.884;2023-02-03T11:51:22;13.73;;;3.38;;
29202;SDS011;16245;51.170;4.884;2023-02-03T12:07:31;8.73;;;1.88;;
29202;SDS011;16245;51.170;4.884;2023-02-03T12:10:12;9.30;;;2.42;;
29202;SDS011;16245;51.170;4.884;2023-02-03T12:15:29;13.10;;;2.45;;
29202;SDS011;16245;51.170;4.884;2023-02-03T12:21:12;8.48;;;1.90;;
29202;SDS011;16245;51.170;4.884;2023-02-03T12:23:58;7.07;;;2.40;;
29202;SDS011;16245;51.170;4.884;2023-02-03T12:29:19;6.20;;;2.53;;
29202;SDS011;16245;51.170;4.884;2023-02-03T12:31:51;7.88;;;3.15;;
29202;SDS011;16245;51.170;4.884;2023-02-03T12:34:28;7.93;;;2.58;;
29202;SDS011;16245;51.170;4.884;2023-02-03T12:39:39;8.68;;;2.55;;
29202;SDS011;16245;51.170;4.884;2023-02-03T12:42:38;10.60;;;2.17;;
29202;SDS011;16245;51.170;4.884;2023-02-03T12:45:04;6.32;;;2.38;;
29202;SDS011;16245;51.170;4.884;2023-02-03T12:50:06;4.82;;;2.22;;
29202;SDS011;16245;51.170;4.884;2023-02-03T12:52:50;9.88;;;2.47;;
29202;SDS011;16245;51.170;4.884;2023-02-03T12:55:44;9.60;;;2.90;;
29202;SDS011;16245;51.170;4.884;2023-02-03T12:58:30;5.85;;;2.22;;
29202;SDS011;16245;51.170;4.884;2023-02-03T13:01:23;8.52;;;3.38;;
29202;SDS011;16245;51.170;4.884;2023-02-03T13:03:59;8.50;;;2.55;;
29202;SDS011;16245;51.170;4.884;2023-02-03T13:09:38;6.70;;;2.20;;
29202;SDS011;16245;51.170;4.884;2023-02-03T13:12:46;6.43;;;2.47;;
29202;SDS011;16245;51.170;4.884;2023-02-03T13:15:29;7.28;;;2.90;;
29202;SDS011;16245;51.170;4.884;2023-02-03T13:18:07;7.43;;;2.50;;
29202;SDS011;16245;51.170;4.884;2023-02-03T13:20:43;8.57;;;2.83;;
29202;SDS011;16245;51.170;4.884;2023-02-03T13:23:11;8.75;;;2.50;;
29202;SDS011;16245;51.170;4.884;2023-02-03T13:25:45;9.00;;;2.70;;
29202;SDS011;16245;51.170;4.884;2023-02-03T13:39:17;23.27;;;9.00;;
29202;SDS011;16245;51.170;4.884;2023-02-03T13:41:52;5.75;;;2.92;;
29202;SDS011;16245;51.170;4.884;2023-02-03T13:44:22;10.13;;;2.75;;
29202;SDS011;16245;51.170;4.884;2023-02-03T13:46:52;9.77;;;2.58;;
29202;SDS011;16245;51.170;4.884;2023-02-03T13:49:29;7.43;;;2.80;;
29202;SDS011;16245;51.170;4.884;2023-02-03T13:52:00;6.07;;;2.35;;
29202;SDS011;16245;51.170;4.884;2023-02-03T13:54:27;10.60;;;2.78;;
29202;SDS011;16245;51.170;4.884;2023-02-03T13:57:04;4.85;;;2.20;;
29202;SDS011;16245;51.170;4.884;2023-02-03T13:59:45;8.82;;;2.80;;
29202;SDS011;16245;51.170;4.884;2023-02-03T14:09:57;8.43;;;2.38;;
29202;SDS011;16245;51.170;4.884;2023-02-03T14:15:35;9.60;;;2.72;;
29202;SDS011;16245;51.170;4.884;2023-02-03T14:20:45;7.45;;;2.30;;
29202;SDS011;16245;51.170;4.884;2023-02-03T14:23:37;7.75;;;2.35;;
29202;SDS011;16245;51.170;4.884;2023-02-03T14:26:05;5.40;;;2.35;;
29202;SDS011;16245;51.170;4.884;2023-02-03T14:28:42;3.85;;;2.25;;
29202;SDS011;16245;51.170;4.884;2023-02-03T14:31:11;5.30;;;2.28;;
29202;SDS011;16245;51.170;4.884;2023-02-03T14:38:54;5.57;;;2.47;;
29202;SDS011;16245;51.170;4.884;2023-02-03T14:41:25;5.97;;;2.38;;
29202;SDS011;16245;51.170;4.884;2023-02-03T14:44:19;3.97;;;2.15;;
29202;SDS011;16245;51.170;4.884;2023-02-03T14:55:22;4.32;;;2.22;;
29202;SDS011;16245;51.170;4.884;2023-02-03T14:57:57;7.72;;;2.42;;
29202;SDS011;16245;51.170;4.884;2023-02-03T15:00:28;6.75;;;2.25;;
29202;SDS011;16245;51.170;4.884;2023-02-03T15:03:16;5.68;;;1.55;;
29202;SDS011;16245;51.170;4.884;2023-02-03T15:06:04;9.20;;;2.60;;
29202;SDS011;16245;51.170;4.884;2023-02-03T15:08:46;7.30;;;2.33;;
29202;SDS011;16245;51.170;4.884;2023-02-03T15:14:27;6.07;;;1.90;;
29202;SDS011;16245;51.170;4.884;2023-02-03T15:17:00;8.73;;;2.92;;
29202;SDS011;16245;51.170;4.884;2023-02-03T15:19:38;4.07;;;2.10;;
29202;SDS011;16245;51.170;4.884;2023-02-03T15:22:16;7.57;;;2.50;;
29202;SDS011;16245;51.170;4.884;2023-02-03T15:24:54;7.00;;;2.35;;
29202;SDS011;16245;51.170;4.884;2023-02-03T15:27:26;6.90;;;2.00;;
29202;SDS011;16245;51.170;4.884;2023-02-03T15:29:54;6.97;;;2.30;;
29202;SDS011;16245;51.170;4.884;2023-02-03T15:32:30;8.82;;;1.95;;
29202;SDS011;16245;51.170;4.884;2023-02-03T15:35:04;7.25;;;2.10;;
29202;SDS011;16245;51.170;4.884;2023-02-03T15:37:50;8.98;;;3.08;;
29202;SDS011;16245;51.170;4.884;2023-02-03T15:40:21;5.70;;;2.40;;
29202;SDS011;16245;51.170;4.884;2023-02-03T15:43:01;11.45;;;2.92;;
29202;SDS011;16245;51.170;4.884;2023-02-03T15:46:16;10.77;;;2.65;;
29202;SDS011;16245;51.170;4.884;2023-02-03T15:59:05;11.32;;;3.25;;
29202;SDS011;16245;51.170;4.884;2023-02-03T16:01:53;8.98;;;2.72;;
29202;SDS011;16245;51.170;4.884;2023-02-03T16:04:20;7.85;;;2.50;;
29202;SDS011;16245;51.170;4.884;2023-02-03T16:06:48;6.60;;;2.60;;
29202;SDS011;16245;51.170;4.884;2023-02-03T16:09:25;9.35;;;2.75;;
29202;SDS011;16245;51.170;4.884;2023-02-03T16:12:01;8.25;;;3.03;;
29202;SDS011;16245;51.170;4.884;2023-02-03T16:14:39;8.07;;;2.13;;
29202;SDS011;16245;51.170;4.884;2023-02-03T16:17:15;5.88;;;2.40;;
29202;SDS011;16245;51.170;4.884;2023-02-03T16:19:48;9.50;;;2.22;;
29202;SDS011;16245;51.170;4.884;2023-02-03T16:22:35;4.40;;;2.40;;
29202;SDS011;16245;51.170;4.884;2023-02-03T16:31:12;7.47;;;2.67;;
29202;SDS011;16245;51.170;4.884;2023-02-03T16:33:59;8.43;;;2.85;;
29202;SDS011;16245;51.170;4.884;2023-02-03T16:36:45;7.65;;;2.80;;
29202;SDS011;16245;51.170;4.884;2023-02-03T16:39:30;10.40;;;3.10;;
29202;SDS011;16245;51.170;4.884;2023-02-03T16:42:15;4.68;;;2.35;;
29202;SDS011;16245;51.170;4.884;2023-02-03T16:45:00;10.55;;;3.20;;
29202;SDS011;16245;51.170;4.884;2023-02-03T16:47:45;8.00;;;2.80;;
29202;SDS011;16245;51.170;4.884;2023-02-03T16:50:30;6.88;;;2.80;;
29202;SDS011;16245;51.170;4.884;2023-02-03T16:53:18;8.38;;;3.55;;
29202;SDS011;16245;51.170;4.884;2023-02-03T16:55:45;6.13;;;2.65;;
29202;SDS011;16245;51.170;4.884;2023-02-03T16:58:11;5.18;;;2.15;;
29202;SDS011;16245;51.170;4.884;2023-02-03T17:00:38;4.10;;;2.33;;
29202;SDS011;16245;51.170;4.884;2023-02-03T17:03:09;10.23;;;2.72;;
29202;SDS011;16245;51.170;4.884;2023-02-03T17:05:37;5.95;;;3.22;;
29202;SDS011;16245;51.170;4.884;2023-02-03T17:08:05;6.95;;;2.50;;
29202;SDS011;16245;51.170;4.884;2023-02-03T17:10:37;6.68;;;2.90;;
29202;SDS011;16245;51.170;4.884;2023-02-03T17:13:05;6.55;;;2.63;;
29202;SDS011;16245;51.170;4.884;2023-02-03T17:15:32;6.32;;;3.00;;
29202;SDS011;16245;51.170;4.884;2023-02-03T17:18:08;7.63;;;2.95;;
29202;SDS011;16245;51.170;4.884;2023-02-03T17:20:35;7.78;;;3.17;;
29202;SDS011;16245;51.170;4.884;2023-02-03T17:23:01;8.10;;;2.85;;
29202;SDS011;16245;51.170;4.884;2023-02-03T17:25:27;8.13;;;3.20;;
29202;SDS011;16245;51.170;4.884;2023-02-03T17:27:53;8.02;;;3.25;;